createdAt,value
2022-08-22T00:00:10.140Z,1.10
2022-08-22T00:01:17.624Z,1.60
2022-08-22T00:02:27.871Z,1.90
2022-08-22T00:02:53.912Z,2.30
2022-08-22T00:02:54.720Z,1.20
2022-08-22T00:03:02.620Z,1.87
2022-08-22T00:03:03.076Z,1.30
2022-08-22T00:03:12.286Z,2.00
2022-08-22T00:03:42.526Z,1.53
2022-08-22T00:04:54.406Z,0.90
2022-08-22T00:06:08.748Z,1.70
2022-08-22T00:07:22.585Z,1.60
2022-08-22T00:08:29.139Z,1.40
2022-08-22T00:09:37.239Z,1.50
2022-08-22T00:10:49.742Z,1.80
2022-08-22T00:12:02.481Z,1.93
2022-08-22T00:13:08.591Z,1.70
2022-08-22T00:14:25.599Z,1.70
2022-08-22T00:15:43.111Z,1.90
2022-08-22T00:17:14.604Z,1.93
2022-08-22T00:18:28.593Z,1.33
2022-08-22T00:19:42.220Z,1.67
2022-08-22T00:20:48.589Z,1.73
2022-08-22T00:21:54.348Z,1.67
2022-08-22T00:23:07.643Z,1.50
2022-08-22T00:24:21.464Z,1.83
2022-08-22T00:25:34.781Z,1.67
2022-08-22T00:26:45.126Z,2.10
2022-08-22T00:27:52.321Z,1.83
2022-08-22T00:29:05.529Z,1.50
2022-08-22T00:30:13.424Z,2.27
2022-08-22T00:31:23.459Z,1.80
2022-08-22T00:32:32.575Z,1.80
2022-08-22T00:33:47.643Z,1.80
2022-08-22T00:34:56.132Z,1.80
2022-08-22T00:36:11.305Z,2.00
2022-08-22T00:37:25.550Z,1.40
2022-08-22T00:38:31.498Z,1.73
2022-08-22T00:39:44.636Z,1.60
2022-08-22T00:40:54.681Z,2.13
2022-08-22T00:42:29.513Z,2.13
2022-08-22T00:43:53.751Z,1.23
2022-08-22T00:45:22.534Z,1.90
2022-08-22T00:46:39.054Z,1.67
2022-08-22T00:48:04.537Z,1.43
2022-08-22T00:49:17.235Z,1.60
2022-08-22T00:50:51.543Z,1.53
2022-08-22T00:52:18.382Z,1.13
2022-08-22T00:53:32.621Z,1.47
2022-08-22T00:54:47.274Z,1.60
2022-08-22T00:56:05.613Z,1.70
2022-08-22T00:57:28.495Z,1.20
2022-08-22T00:58:51.294Z,1.40
2022-08-22T01:00:07.093Z,1.60
2022-08-22T01:01:12.608Z,1.27
2022-08-22T01:02:30.520Z,1.63
2022-08-22T01:03:49.284Z,1.30
2022-08-22T01:04:57.480Z,1.17
2022-08-22T01:06:08.851Z,1.77
2022-08-22T01:07:25.651Z,1.33
2022-08-22T01:08:49.235Z,1.20
2022-08-22T01:09:58.127Z,1.00
2022-08-22T01:11:08.063Z,1.40
2022-08-22T01:12:35.819Z,1.50
2022-08-22T01:13:57.286Z,1.63
2022-08-22T01:15:02.049Z,1.50
2022-08-22T01:16:11.615Z,1.90
2022-08-22T01:17:51.642Z,1.43
2022-08-22T01:19:10.163Z,1.10
2022-08-22T01:20:31.991Z,1.07
2022-08-22T01:21:54.831Z,1.37
2022-08-22T01:23:19.620Z,1.20
2022-08-22T01:25:01.901Z,0.90
2022-08-22T01:26:26.791Z,1.07
2022-08-22T01:27:50.056Z,1.03
2022-08-22T01:29:19.655Z,0.63
2022-08-22T01:30:41.781Z,0.83
2022-08-22T01:32:03.293Z,1.03
2022-08-22T01:33:31.960Z,1.20
2022-08-22T01:34:56.753Z,1.03
2022-08-22T01:36:19.399Z,1.30
2022-08-22T01:37:43.798Z,1.17
2022-08-22T01:39:03.220Z,0.90
2022-08-22T01:40:24.640Z,0.80
2022-08-22T01:42:00.594Z,1.37
2022-08-22T01:43:10.124Z,1.10
2022-08-22T01:44:22.216Z,1.03
2022-08-22T01:45:37.894Z,1.50
2022-08-22T01:46:54.589Z,1.20
2022-08-22T01:48:01.048Z,1.40
2022-08-22T01:49:09.450Z,1.00
2022-08-22T01:50:20.947Z,0.90
2022-08-22T01:51:27.617Z,1.50
2022-08-22T01:52:46.641Z,1.37
2022-08-22T01:53:52.998Z,1.70
2022-08-22T01:54:58.636Z,1.60
2022-08-22T01:56:07.656Z,1.10
2022-08-22T01:57:19.754Z,1.17
2022-08-22T01:58:25.382Z,1.07
2022-08-22T01:59:34.243Z,1.33
2022-08-22T02:00:53.216Z,1.37
2022-08-22T02:02:00.855Z,1.70
2022-08-22T02:03:24.599Z,1.57
2022-08-22T02:04:34.333Z,1.00
2022-08-22T02:05:41.304Z,1.33
2022-08-22T02:06:48.783Z,1.47
2022-08-22T02:07:56.459Z,1.57
2022-08-22T02:09:10.607Z,1.67
2022-08-22T02:10:18.190Z,1.30
2022-08-22T02:11:37.552Z,2.00
2022-08-22T02:12:44.424Z,1.40
2022-08-22T02:14:01.629Z,1.60
2022-08-22T02:15:15.663Z,2.03
2022-08-22T02:16:22.417Z,1.60
2022-08-22T02:17:47.626Z,1.70
2022-08-22T02:19:16.718Z,1.50
2022-08-22T02:20:22.663Z,1.23
2022-08-22T02:21:31.784Z,1.00
2022-08-22T02:22:44.295Z,1.00
2022-08-22T02:23:52.999Z,1.50
2022-08-22T02:25:11.639Z,1.27
2022-08-22T02:26:18.010Z,1.63
2022-08-22T02:27:27.121Z,1.40
2022-08-22T02:28:56.671Z,1.70
2022-08-22T02:30:04.508Z,1.87
2022-08-22T02:31:18.669Z,1.57
2022-08-22T02:32:23.957Z,1.40
2022-08-22T02:33:34.434Z,1.70
2022-08-22T02:34:41.297Z,1.40
2022-08-22T02:35:57.586Z,2.10
2022-08-22T02:37:09.674Z,1.63
2022-08-22T02:38:23.709Z,1.77
2022-08-22T02:39:30.582Z,2.20
2022-08-22T02:40:37.750Z,1.50
2022-08-22T02:41:54.571Z,1.90
2022-08-22T02:43:02.327Z,2.03
2022-08-22T02:44:15.248Z,1.57
2022-08-22T02:45:27.681Z,1.80
2022-08-22T02:46:40.661Z,1.37
2022-08-22T02:47:51.201Z,1.37
2022-08-22T02:48:59.315Z,1.40
2022-08-22T02:50:13.098Z,1.30
2022-08-22T02:51:20.826Z,1.93
2022-08-22T02:52:34.666Z,1.57
2022-08-22T02:53:40.580Z,2.87
2022-08-22T02:54:50.238Z,2.63
2022-08-22T02:55:56.922Z,2.10
2022-08-22T02:57:04.480Z,1.67
2022-08-22T02:58:16.673Z,2.00
2022-08-22T02:59:33.683Z,1.50
2022-08-22T03:00:44.670Z,1.83
2022-08-22T03:01:49.449Z,1.50
2022-08-22T03:03:01.344Z,2.30
2022-08-22T03:04:26.651Z,2.30
2022-08-22T03:05:31.607Z,1.73
2022-08-22T03:06:39.565Z,2.07
2022-08-22T03:07:47.662Z,1.87
2022-08-22T03:09:02.414Z,2.00
2022-08-22T03:10:19.510Z,1.40
2022-08-22T03:11:25.675Z,1.77
2022-08-22T03:12:33.054Z,1.60
2022-08-22T03:13:39.492Z,1.63
2022-08-22T03:14:53.646Z,1.77
2022-08-22T03:15:59.189Z,1.63
2022-08-22T03:17:25.609Z,1.73
2022-08-22T03:18:33.502Z,1.90
2022-08-22T03:19:47.104Z,2.73
2022-08-22T03:21:05.665Z,1.90
2022-08-22T03:22:11.602Z,1.30
2022-08-22T03:23:19.092Z,1.80
2022-08-22T03:24:25.962Z,2.00
2022-08-22T03:25:32.934Z,2.00
2022-08-22T03:26:48.714Z,1.40
2022-08-22T03:27:56.190Z,1.53
2022-08-22T03:29:03.468Z,2.20
2022-08-22T03:30:08.904Z,1.97
2022-08-22T03:31:13.418Z,1.67
2022-08-22T03:32:25.708Z,2.00
2022-08-22T03:33:30.945Z,1.83
2022-08-22T03:34:34.327Z,1.43
2022-08-22T03:35:40.489Z,2.50
2022-08-22T03:36:50.212Z,1.47
2022-08-22T03:38:02.611Z,1.60
2022-08-22T03:39:17.611Z,1.43
2022-08-22T03:40:27.828Z,1.50
2022-08-22T03:42:00.686Z,2.00
2022-08-22T03:43:14.098Z,2.17
2022-08-22T03:44:37.976Z,1.67
2022-08-22T03:46:05.634Z,1.17
2022-08-22T03:47:30.563Z,1.60
2022-08-22T03:48:44.343Z,1.40
2022-08-22T03:50:06.118Z,1.63
2022-08-22T03:51:28.709Z,1.20
2022-08-22T03:53:03.532Z,1.30
2022-08-22T03:54:16.951Z,0.70
2022-08-22T03:55:28.316Z,0.93
2022-08-22T03:56:56.010Z,1.37
2022-08-22T03:58:28.005Z,1.43
2022-08-22T03:59:52.831Z,1.40
2022-08-22T04:01:23.657Z,1.30
2022-08-22T04:02:50.698Z,1.03
2022-08-22T04:04:15.384Z,1.30
2022-08-22T04:05:31.344Z,1.20
2022-08-22T04:06:48.604Z,1.83
2022-08-22T04:08:17.666Z,1.13
2022-08-22T04:09:37.439Z,1.40
2022-08-22T04:11:03.469Z,1.50
2022-08-22T04:12:24.372Z,1.30
2022-08-22T04:13:52.730Z,1.17
2022-08-22T04:15:09.031Z,1.50
2022-08-22T04:16:40.144Z,1.17
2022-08-22T04:18:04.418Z,1.40
2022-08-22T04:19:30.125Z,0.73
2022-08-22T04:20:56.958Z,1.10
2022-08-22T04:22:16.027Z,1.33
2022-08-22T04:23:35.482Z,0.77
2022-08-22T04:24:56.686Z,1.10
2022-08-22T04:26:10.809Z,0.90
2022-08-22T04:27:19.310Z,1.23
2022-08-22T04:28:25.375Z,1.07
2022-08-22T04:29:39.611Z,1.20
2022-08-22T04:30:52.730Z,1.00
2022-08-22T04:31:58.050Z,1.07
2022-08-22T04:33:04.005Z,0.90
2022-08-22T04:34:11.286Z,1.40
2022-08-22T04:35:34.742Z,1.17
2022-08-22T04:36:42.327Z,0.80
2022-08-22T04:37:49.094Z,1.33
2022-08-22T04:38:56.575Z,1.73
2022-08-22T04:40:05.757Z,1.30
2022-08-22T04:41:17.685Z,1.23
2022-08-22T04:42:38.427Z,1.50
2022-08-22T04:43:47.898Z,1.83
2022-08-22T04:44:54.052Z,1.73
2022-08-22T04:46:00.011Z,1.30
2022-08-22T04:47:11.796Z,1.50
2022-08-22T04:48:22.229Z,1.73
2022-08-22T04:49:30.532Z,1.17
2022-08-22T04:50:41.258Z,1.10
2022-08-22T04:51:48.801Z,1.27
2022-08-22T04:53:05.667Z,1.40
2022-08-22T04:54:17.304Z,1.33
2022-08-22T04:55:28.003Z,1.00
2022-08-22T04:56:43.685Z,2.07
2022-08-22T04:57:59.731Z,1.23
2022-08-22T04:59:06.158Z,1.30
2022-08-22T05:00:11.767Z,0.97
2022-08-22T05:01:18.265Z,1.47
2022-08-22T05:02:22.636Z,1.33
2022-08-22T05:03:39.911Z,0.83
2022-08-22T05:04:49.079Z,0.77
2022-08-22T05:05:54.097Z,1.10
2022-08-22T05:07:01.776Z,0.80
2022-08-22T05:08:13.666Z,1.33
2022-08-22T05:09:21.234Z,1.40
2022-08-22T05:10:34.055Z,1.17
2022-08-22T05:11:39.620Z,1.13
2022-08-22T05:12:44.514Z,1.20
2022-08-22T05:13:57.941Z,0.80
2022-08-22T05:15:03.778Z,0.93
2022-08-22T05:16:11.160Z,0.90
2022-08-22T05:17:22.726Z,1.00
2022-08-22T05:18:42.720Z,0.73
2022-08-22T05:19:54.792Z,0.90
2022-08-22T05:21:01.180Z,1.33
2022-08-22T05:22:05.552Z,1.20
2022-08-22T05:23:17.166Z,1.17
2022-08-22T05:24:30.770Z,1.40
2022-08-22T05:25:38.902Z,0.83
2022-08-22T05:26:43.288Z,1.10
2022-08-22T05:27:49.742Z,1.40
2022-08-22T05:28:59.159Z,0.80
2022-08-22T05:30:10.776Z,0.73
2022-08-22T05:31:16.877Z,1.00
2022-08-22T05:32:28.679Z,0.97
2022-08-22T05:33:34.712Z,1.23
2022-08-22T05:34:45.684Z,0.33
2022-08-22T05:35:57.752Z,1.17
2022-08-22T05:37:09.662Z,1.07
2022-08-22T05:38:16.635Z,0.90
2022-08-22T05:39:23.718Z,1.00
2022-08-22T05:40:30.165Z,1.00
2022-08-22T05:41:37.854Z,1.03
2022-08-22T05:42:48.716Z,1.60
2022-08-22T05:43:53.821Z,1.03
2022-08-22T05:44:57.540Z,1.63
2022-08-22T05:46:02.455Z,0.80
2022-08-22T05:47:13.727Z,1.00
2022-08-22T05:48:19.658Z,1.17
2022-08-22T05:49:24.794Z,1.07
2022-08-22T05:50:33.598Z,1.00
2022-08-22T05:51:38.844Z,1.10
2022-08-22T05:52:59.733Z,1.20
2022-08-22T05:54:11.825Z,1.07
2022-08-22T05:55:29.674Z,1.10
2022-08-22T05:56:37.743Z,0.83
2022-08-22T05:57:50.763Z,0.87
2022-08-22T05:58:57.014Z,1.53
2022-08-22T06:00:06.025Z,1.13
2022-08-22T06:01:23.708Z,0.90
2022-08-22T06:02:32.160Z,1.03
2022-08-22T06:03:37.382Z,1.73
2022-08-22T06:04:47.533Z,1.40
2022-08-22T06:05:59.721Z,1.13
2022-08-22T06:07:06.797Z,1.27
2022-08-22T06:08:15.603Z,2.07
2022-08-22T06:09:21.952Z,3.13
2022-08-22T06:10:27.294Z,1.60
2022-08-22T06:11:40.720Z,1.47
2022-08-22T06:12:59.780Z,2.27
2022-08-22T06:14:09.803Z,1.60
2022-08-22T06:15:20.770Z,1.43
2022-08-22T06:16:26.424Z,1.90
2022-08-22T06:17:40.150Z,1.30
2022-08-22T06:18:57.643Z,2.63
2022-08-22T06:20:02.888Z,1.07
2022-08-22T06:21:08.529Z,1.50
2022-08-22T06:22:20.715Z,1.47
2022-08-22T06:23:27.386Z,1.50
2022-08-22T06:24:34.153Z,1.80
2022-08-22T06:25:46.681Z,1.50
2022-08-22T06:26:52.707Z,1.43
2022-08-22T06:28:04.682Z,1.50
2022-08-22T06:29:09.694Z,1.17
2022-08-22T06:30:15.662Z,2.50
2022-08-22T06:31:21.903Z,1.83
2022-08-22T06:32:58.880Z,1.30
2022-08-22T06:34:06.871Z,1.57
2022-08-22T06:35:14.274Z,1.67
2022-08-22T06:36:34.444Z,2.00
2022-08-22T06:37:39.724Z,1.63
2022-08-22T06:38:55.955Z,2.30
2022-08-22T06:40:08.029Z,2.70
2022-08-22T06:41:11.310Z,2.73
2022-08-22T06:42:17.220Z,2.47
2022-08-22T06:43:22.119Z,2.20
2022-08-22T06:44:34.795Z,1.93
2022-08-22T06:45:38.285Z,1.77
2022-08-22T06:46:42.896Z,1.40
2022-08-22T06:47:49.838Z,1.30
2022-08-22T06:48:55.617Z,1.50
2022-08-22T06:50:13.626Z,1.10
2022-08-22T06:51:19.075Z,1.53
2022-08-22T06:52:24.003Z,0.73
2022-08-22T06:53:30.045Z,1.20
2022-08-22T06:54:36.589Z,1.13
2022-08-22T06:55:47.676Z,0.83
2022-08-22T06:56:53.194Z,0.83
2022-08-22T06:57:59.260Z,0.80
2022-08-22T06:59:09.574Z,0.80
2022-08-22T07:00:15.545Z,0.90
2022-08-22T07:01:27.784Z,1.13
2022-08-22T07:02:36.146Z,1.00
2022-08-22T07:03:41.175Z,0.90
2022-08-22T07:04:45.824Z,0.70
2022-08-22T07:05:50.483Z,0.90
2022-08-22T07:07:01.767Z,0.90
2022-08-22T07:08:07.206Z,0.50
2022-08-22T07:09:22.164Z,1.07
2022-08-22T07:10:25.896Z,0.93
2022-08-22T07:11:32.095Z,0.70
2022-08-22T07:12:44.716Z,0.90
2022-08-22T07:13:53.304Z,0.70
2022-08-22T07:15:00.398Z,0.53
2022-08-22T07:16:08.511Z,0.90
2022-08-22T07:17:25.705Z,0.47
2022-08-22T07:18:42.705Z,0.77
2022-08-22T07:19:48.767Z,0.77
2022-08-22T07:20:55.000Z,0.77
2022-08-22T07:21:58.705Z,0.83
2022-08-22T07:23:10.771Z,0.33
2022-08-22T07:24:17.233Z,0.70
2022-08-22T07:25:21.355Z,0.63
2022-08-22T07:26:29.445Z,0.53
2022-08-22T07:27:49.618Z,0.40
2022-08-22T07:28:58.670Z,0.50
2022-08-22T07:30:10.085Z,0.73
2022-08-22T07:31:18.920Z,1.03
2022-08-22T07:32:37.667Z,1.00
2022-08-22T07:33:44.346Z,0.90
2022-08-22T07:35:01.744Z,0.93
2022-08-22T07:36:18.752Z,0.60
2022-08-22T07:37:27.266Z,0.80
2022-08-22T07:38:35.459Z,0.70
2022-08-22T07:39:47.803Z,0.60
2022-08-22T07:40:54.726Z,0.80
2022-08-22T07:42:03.999Z,0.90
2022-08-22T07:43:13.774Z,1.73
2022-08-22T07:44:18.335Z,0.90
2022-08-22T07:45:37.959Z,1.03
2022-08-22T07:46:43.907Z,0.77
2022-08-22T07:47:55.383Z,0.93
2022-08-22T07:49:10.144Z,1.07
2022-08-22T07:50:22.839Z,0.70
2022-08-22T07:51:33.828Z,0.73
2022-08-22T07:52:41.283Z,0.57
2022-08-22T07:53:46.311Z,1.77
2022-08-22T07:54:53.398Z,0.60
2022-08-22T07:56:04.772Z,0.70
2022-08-22T07:57:11.111Z,0.53
2022-08-22T07:58:16.953Z,0.60
2022-08-22T07:59:21.880Z,0.93
2022-08-22T08:00:36.122Z,1.07
2022-08-22T08:01:47.960Z,0.60
2022-08-22T08:02:52.522Z,0.40
2022-08-22T08:04:04.705Z,1.30
2022-08-22T08:05:08.403Z,0.77
2022-08-22T08:06:19.773Z,1.37
2022-08-22T08:07:24.492Z,0.93
2022-08-22T08:08:31.461Z,0.70
2022-08-22T08:09:36.176Z,0.83
2022-08-22T08:10:41.714Z,0.70
2022-08-22T08:11:52.679Z,0.70
2022-08-22T08:13:02.574Z,1.50
2022-08-22T08:14:09.384Z,1.00
2022-08-22T08:15:18.516Z,0.97
2022-08-22T08:16:32.742Z,1.20
2022-08-22T08:17:44.135Z,0.80
2022-08-22T08:18:56.929Z,1.30
2022-08-22T08:20:01.436Z,0.70
2022-08-22T08:21:07.217Z,1.30
2022-08-22T08:22:21.828Z,1.30
2022-08-22T08:23:27.061Z,1.43
2022-08-22T08:24:40.203Z,1.67
2022-08-22T08:25:53.317Z,1.87
2022-08-22T08:27:16.024Z,1.60
2022-08-22T08:28:43.741Z,1.63
2022-08-22T08:29:56.297Z,2.27
2022-08-22T08:31:05.095Z,1.50
2022-08-22T08:32:12.479Z,1.83
2022-08-22T08:33:26.737Z,1.20
2022-08-22T08:34:39.728Z,1.67
2022-08-22T08:36:03.065Z,1.50
2022-08-22T08:37:13.038Z,1.33
2022-08-22T08:38:18.867Z,1.33
2022-08-22T08:39:35.346Z,1.20
2022-08-22T08:40:58.081Z,0.90
2022-08-22T08:42:19.302Z,1.60
2022-08-22T08:43:30.266Z,1.00
2022-08-22T08:45:07.751Z,1.50
2022-08-22T08:46:19.434Z,1.03
2022-08-22T08:47:30.295Z,0.93
2022-08-22T08:49:00.915Z,0.67
2022-08-22T08:50:17.101Z,1.47
2022-08-22T08:51:40.768Z,0.50
2022-08-22T08:53:00.637Z,0.80
2022-08-22T08:54:27.780Z,0.50
2022-08-22T08:55:37.617Z,0.60
2022-08-22T08:56:47.245Z,0.50
2022-08-22T08:58:05.087Z,0.70
2022-08-22T08:59:14.104Z,0.83
2022-08-22T09:00:30.281Z,0.63
2022-08-22T09:01:56.805Z,1.13
2022-08-22T09:03:08.589Z,0.80
2022-08-22T09:04:29.488Z,0.80
2022-08-22T09:05:53.971Z,1.02
2022-08-22T09:07:15.788Z,0.83
2022-08-22T09:08:31.443Z,1.03
2022-08-22T09:09:44.473Z,0.85
2022-08-22T09:11:12.073Z,0.73
2022-08-22T09:12:34.044Z,0.80
2022-08-22T09:13:45.835Z,0.93
2022-08-22T09:15:14.318Z,0.40
2022-08-22T09:16:34.793Z,0.90
2022-08-22T09:18:10.841Z,0.98
2022-08-22T09:19:44.746Z,0.63
2022-08-22T09:20:58.167Z,0.75
2022-08-22T09:22:26.680Z,0.82
2022-08-22T09:23:56.257Z,0.77
2022-08-22T09:25:06.084Z,0.93
2022-08-22T09:26:16.327Z,0.90
2022-08-22T09:27:32.836Z,0.70
2022-08-22T09:28:46.765Z,0.70
2022-08-22T09:29:54.767Z,0.50
2022-08-22T09:31:32.768Z,0.80
2022-08-22T09:32:46.674Z,0.80
2022-08-22T09:34:00.201Z,1.00
2022-08-22T09:35:11.684Z,0.90
2022-08-22T09:36:19.961Z,1.05
2022-08-22T09:37:30.462Z,0.50
2022-08-22T09:38:38.526Z,0.60
2022-08-22T09:39:55.455Z,1.13
2022-08-22T09:41:05.894Z,1.42
2022-08-22T09:42:13.685Z,0.43
2022-08-22T09:43:21.466Z,0.95
2022-08-22T09:44:31.914Z,1.08
2022-08-22T09:45:50.097Z,0.50
2022-08-22T09:47:02.573Z,0.85
2022-08-22T09:48:10.336Z,0.80
2022-08-22T09:49:16.471Z,0.70
2022-08-22T09:50:22.144Z,0.98
2022-08-22T09:51:41.805Z,1.00
2022-08-22T09:52:58.888Z,1.02
2022-08-22T09:54:19.195Z,0.70
2022-08-22T09:55:35.354Z,1.10
2022-08-22T09:56:47.775Z,0.60
2022-08-22T09:57:54.020Z,1.13
2022-08-22T09:59:01.423Z,0.95
2022-08-22T10:00:22.400Z,0.70
2022-08-22T10:01:33.823Z,0.57
2022-08-22T10:02:43.577Z,1.00
2022-08-22T10:04:05.434Z,0.60
2022-08-22T10:05:35.167Z,0.75
2022-08-22T10:06:50.803Z,1.38
2022-08-22T10:08:05.664Z,0.43
2022-08-22T10:09:12.025Z,0.85
2022-08-22T10:10:23.285Z,0.60
2022-08-22T10:11:32.893Z,0.52
2022-08-22T10:12:49.873Z,0.50
2022-08-22T10:14:04.416Z,0.95
2022-08-22T10:15:16.153Z,0.50
2022-08-22T10:16:26.910Z,0.95
2022-08-22T10:17:45.863Z,0.82
2022-08-22T10:19:05.150Z,1.00
2022-08-22T10:20:15.573Z,0.95
2022-08-22T10:21:25.507Z,1.05
2022-08-22T10:22:41.302Z,0.55
2022-08-22T10:24:00.864Z,0.73
2022-08-22T10:25:14.485Z,0.70
2022-08-22T10:26:27.075Z,0.88
2022-08-22T10:27:36.823Z,0.82
2022-08-22T10:28:50.855Z,0.90
2022-08-22T10:29:59.970Z,0.80
2022-08-22T10:31:11.054Z,0.80
2022-08-22T10:32:26.911Z,0.80
2022-08-22T10:33:34.407Z,0.57
2022-08-22T10:34:47.813Z,0.95
2022-08-22T10:36:00.326Z,0.80
2022-08-22T10:37:23.753Z,0.57
2022-08-22T10:38:31.917Z,0.82
2022-08-22T10:39:49.920Z,0.88
2022-08-22T10:40:58.626Z,1.00
2022-08-22T10:42:09.376Z,0.50
2022-08-22T10:43:15.736Z,0.68
2022-08-22T10:44:22.093Z,1.10
2022-08-22T10:45:37.287Z,0.60
2022-08-22T10:46:49.854Z,0.57
2022-08-22T10:48:14.234Z,0.70
2022-08-22T10:49:22.735Z,0.60
2022-08-22T10:50:34.417Z,0.60
2022-08-22T10:51:42.909Z,0.55
2022-08-22T10:52:53.831Z,0.63
2022-08-22T10:54:31.078Z,0.57
2022-08-22T10:55:40.805Z,0.77
2022-08-22T10:56:47.793Z,0.40
2022-08-22T10:58:06.738Z,0.88
2022-08-22T10:59:16.565Z,0.68
2022-08-22T11:00:33.200Z,0.88
2022-08-22T11:01:46.788Z,0.57
2022-08-22T11:02:55.284Z,0.75
2022-08-22T11:04:14.226Z,0.80
2022-08-22T11:05:34.006Z,1.17
2022-08-22T11:06:48.256Z,0.43
2022-08-22T11:07:56.757Z,0.52
2022-08-22T11:09:21.857Z,0.98
2022-08-22T11:10:30.765Z,0.90
2022-08-22T11:11:43.558Z,0.70
2022-08-22T11:12:51.054Z,0.50
2022-08-22T11:14:03.136Z,1.38
2022-08-22T11:15:24.184Z,0.77
2022-08-22T11:16:47.085Z,0.85
2022-08-22T11:18:13.053Z,0.50
2022-08-22T11:19:29.284Z,0.60
2022-08-22T11:20:45.060Z,0.88
2022-08-22T11:21:54.588Z,0.63
2022-08-22T11:23:12.233Z,0.65
2022-08-22T11:24:55.938Z,0.70
2022-08-22T11:26:08.345Z,0.75
2022-08-22T11:27:17.614Z,0.70
2022-08-22T11:28:32.014Z,0.63
2022-08-22T11:29:46.877Z,0.88
2022-08-22T11:30:58.754Z,0.88
2022-08-22T11:32:07.809Z,0.77
2022-08-22T11:33:13.919Z,1.60
2022-08-22T11:34:24.156Z,0.63
2022-08-22T11:35:39.845Z,0.90
2022-08-22T11:36:46.820Z,1.00
2022-08-22T11:37:56.337Z,0.90
2022-08-22T11:39:09.859Z,0.77
2022-08-22T11:40:32.021Z,0.80
2022-08-22T11:41:41.843Z,0.93
2022-08-22T11:42:48.596Z,1.10
2022-08-22T11:43:54.335Z,0.40
2022-08-22T11:45:07.871Z,0.50
2022-08-22T11:46:36.897Z,0.75
2022-08-22T11:47:46.996Z,0.85
2022-08-22T11:48:59.681Z,0.50
2022-08-22T11:50:13.603Z,0.93
2022-08-22T11:51:23.114Z,0.88
2022-08-22T11:52:41.813Z,1.05
2022-08-22T11:53:48.757Z,0.98
2022-08-22T11:55:02.396Z,0.63
2022-08-22T11:56:13.098Z,0.88
2022-08-22T11:57:26.824Z,0.65
2022-08-22T11:58:42.454Z,1.50
2022-08-22T12:00:00.373Z,0.77
2022-08-22T12:01:09.720Z,0.95
2022-08-22T12:02:25.883Z,0.70
2022-08-22T12:03:37.176Z,0.68
2022-08-22T12:04:45.466Z,0.47
2022-08-22T12:05:51.105Z,0.70
2022-08-22T12:07:01.355Z,0.60
2022-08-22T12:08:21.319Z,0.60
2022-08-22T12:09:36.198Z,1.10
2022-08-22T12:10:48.375Z,0.55
2022-08-22T12:12:13.069Z,0.80
2022-08-22T12:13:34.808Z,0.93
2022-08-22T12:14:44.306Z,0.70
2022-08-22T12:15:53.840Z,0.63
2022-08-22T12:17:05.006Z,0.52
2022-08-22T12:18:33.895Z,0.65
2022-08-22T12:20:12.901Z,0.90
2022-08-22T12:21:33.174Z,0.82
2022-08-22T12:22:59.216Z,0.82
2022-08-22T12:24:22.856Z,0.70
2022-08-22T12:25:34.556Z,0.80
2022-08-22T12:26:48.358Z,0.55
2022-08-22T12:27:57.915Z,0.90
2022-08-22T12:29:16.904Z,0.57
2022-08-22T12:30:30.802Z,0.82
2022-08-22T12:31:43.915Z,0.70
2022-08-22T12:33:05.728Z,1.73
2022-08-22T12:34:14.236Z,0.90
2022-08-22T12:35:29.988Z,1.00
2022-08-22T12:36:52.855Z,0.70
2022-08-22T12:38:21.232Z,0.52
2022-08-22T12:39:50.123Z,0.73
2022-08-22T12:41:07.887Z,0.85
2022-08-22T12:42:22.376Z,0.70
2022-08-22T12:43:43.881Z,0.60
2022-08-22T12:44:54.122Z,0.57
2022-08-22T12:46:12.828Z,0.80
2022-08-22T12:47:25.384Z,1.10
2022-08-22T12:48:44.947Z,0.60
2022-08-22T12:50:02.875Z,0.90
2022-08-22T12:51:18.243Z,0.63
2022-08-22T12:52:28.795Z,0.98
2022-08-22T12:53:41.409Z,0.70
2022-08-22T12:54:57.883Z,0.80
2022-08-22T12:56:06.587Z,0.75
2022-08-22T12:57:24.411Z,1.13
2022-08-22T12:58:39.903Z,0.82
2022-08-22T12:59:45.443Z,0.70
2022-08-22T13:00:57.979Z,0.60
2022-08-22T13:02:05.106Z,0.82
2022-08-22T13:03:09.738Z,0.80
2022-08-22T13:04:29.752Z,0.95
2022-08-22T13:05:40.716Z,0.40
2022-08-22T13:06:59.923Z,0.60
2022-08-22T13:08:05.662Z,0.57
2022-08-22T13:09:12.433Z,0.85
2022-08-22T13:10:38.955Z,0.85
2022-08-22T13:11:42.855Z,1.15
2022-08-22T13:12:48.626Z,0.57
2022-08-22T13:13:56.635Z,1.15
2022-08-22T13:15:02.583Z,0.77
2022-08-22T13:16:14.914Z,0.70
2022-08-22T13:17:25.264Z,0.75
2022-08-22T13:18:44.575Z,0.65
2022-08-22T13:20:02.365Z,0.63
2022-08-22T13:21:12.669Z,0.77
2022-08-22T13:22:29.032Z,1.10
2022-08-22T13:23:39.846Z,0.95
2022-08-22T13:24:52.891Z,0.98
2022-08-22T13:26:01.200Z,0.80
2022-08-22T13:27:08.046Z,0.43
2022-08-22T13:28:14.506Z,0.70
2022-08-22T13:29:39.437Z,0.65
2022-08-22T13:30:55.894Z,1.77
2022-08-22T13:32:01.921Z,0.60
2022-08-22T13:33:11.028Z,1.08
2022-08-22T13:34:23.573Z,0.70
2022-08-22T13:35:32.676Z,0.57
2022-08-22T13:36:51.737Z,1.08
2022-08-22T13:37:57.974Z,0.63
2022-08-22T13:39:05.297Z,0.80
2022-08-22T13:40:13.311Z,0.68
2022-08-22T13:41:26.881Z,0.80
2022-08-22T13:42:32.826Z,0.85
2022-08-22T13:43:39.841Z,0.73
2022-08-22T13:44:44.653Z,0.52
2022-08-22T13:46:02.461Z,0.70
2022-08-22T13:47:14.247Z,0.55
2022-08-22T13:48:23.834Z,0.80
2022-08-22T13:49:40.854Z,0.75
2022-08-22T13:50:58.785Z,0.77
2022-08-22T13:52:14.550Z,0.50
2022-08-22T13:53:39.531Z,0.60
2022-08-22T13:54:59.938Z,0.70
2022-08-22T13:56:15.577Z,0.75
2022-08-22T13:57:23.851Z,0.88
2022-08-22T13:58:33.446Z,0.95
2022-08-22T13:59:51.101Z,0.80
2022-08-22T14:01:11.993Z,0.57
2022-08-22T14:02:19.068Z,1.05
2022-08-22T14:03:36.947Z,1.08
2022-08-22T14:04:42.597Z,0.93
2022-08-22T14:06:06.190Z,1.20
2022-08-22T14:07:24.495Z,0.80
2022-08-22T14:08:31.263Z,0.88
2022-08-22T14:09:39.354Z,1.33
2022-08-22T14:10:55.583Z,1.40
2022-08-22T14:12:15.926Z,0.70
2022-08-22T14:13:39.486Z,0.70
2022-08-22T14:14:46.140Z,0.75
2022-08-22T14:15:49.623Z,1.07
2022-08-22T14:16:56.799Z,0.70
2022-08-22T14:18:10.296Z,0.73
2022-08-22T14:19:29.596Z,0.70
2022-08-22T14:20:33.893Z,0.83
2022-08-22T14:21:41.264Z,0.63
2022-08-22T14:23:03.565Z,1.23
2022-08-22T14:24:11.813Z,0.90
2022-08-22T14:25:21.379Z,0.57
2022-08-22T14:26:37.315Z,0.50
2022-08-22T14:28:06.485Z,0.70
2022-08-22T14:29:16.127Z,0.50
2022-08-22T14:30:21.375Z,0.90
2022-08-22T14:31:29.776Z,0.90
2022-08-22T14:32:41.877Z,0.70
2022-08-22T14:33:55.854Z,0.57
2022-08-22T14:35:04.208Z,0.63
2022-08-22T14:36:13.836Z,0.57
2022-08-22T14:37:20.395Z,0.70
2022-08-22T14:38:30.362Z,0.70
2022-08-22T14:39:45.014Z,0.87
2022-08-22T14:41:03.398Z,0.60
2022-08-22T14:42:11.978Z,0.50
2022-08-22T14:43:22.561Z,0.70
2022-08-22T14:44:28.635Z,0.83
2022-08-22T14:45:42.974Z,0.73
2022-08-22T14:46:51.484Z,0.70
2022-08-22T14:48:29.452Z,0.43
2022-08-22T14:49:39.018Z,0.50
2022-08-22T14:50:47.554Z,0.43
2022-08-22T14:51:52.426Z,1.00
2022-08-22T14:53:05.320Z,0.47
2022-08-22T14:54:13.879Z,0.60
2022-08-22T14:55:26.956Z,0.47
2022-08-22T14:56:39.968Z,0.40
2022-08-22T14:57:48.831Z,0.50
2022-08-22T14:58:55.035Z,0.97
2022-08-22T15:00:00.262Z,0.60
2022-08-22T15:01:11.657Z,0.60
2022-08-22T15:02:23.835Z,0.30
2022-08-22T15:03:30.598Z,0.30
2022-08-22T15:04:36.846Z,0.87
2022-08-22T15:05:51.394Z,0.80
2022-08-22T15:07:01.966Z,0.37
2022-08-22T15:08:06.260Z,0.50
2022-08-22T15:09:16.308Z,0.30
2022-08-22T15:10:24.213Z,0.50
2022-08-22T15:11:32.055Z,0.47
2022-08-22T15:12:43.919Z,0.43
2022-08-22T15:13:53.404Z,0.70
2022-08-22T15:14:59.345Z,0.63
2022-08-22T15:16:14.027Z,0.33
2022-08-22T15:17:44.045Z,0.63
2022-08-22T15:18:55.386Z,0.70
2022-08-22T15:20:11.778Z,0.50
2022-08-22T15:21:24.336Z,0.60
2022-08-22T15:22:28.747Z,0.43
2022-08-22T15:23:45.189Z,1.23
2022-08-22T15:24:56.319Z,0.30
2022-08-22T15:26:03.672Z,0.93
2022-08-22T15:27:07.052Z,1.13
2022-08-22T15:28:20.387Z,0.20
2022-08-22T15:29:27.096Z,0.90
2022-08-22T15:30:34.491Z,0.70
2022-08-22T15:31:46.377Z,0.90
2022-08-22T15:32:50.273Z,0.20
2022-08-22T15:34:01.015Z,0.40
2022-08-22T15:35:06.554Z,1.10
2022-08-22T15:36:12.508Z,0.97
2022-08-22T15:37:32.407Z,0.47
2022-08-22T15:38:44.424Z,0.90
2022-08-22T15:40:05.834Z,0.63
2022-08-22T15:41:36.325Z,0.50
2022-08-22T15:42:41.754Z,0.73
2022-08-22T15:43:55.975Z,0.67
2022-08-22T15:45:02.543Z,0.80
2022-08-22T15:46:18.359Z,0.63
2022-08-22T15:47:34.954Z,0.43
2022-08-22T15:48:41.012Z,0.73
2022-08-22T15:49:51.804Z,1.17
2022-08-22T15:51:09.357Z,0.90
2022-08-22T15:52:17.626Z,0.30
2022-08-22T15:53:33.578Z,0.43
2022-08-22T15:54:53.374Z,0.40
2022-08-22T15:56:15.408Z,0.43
2022-08-22T15:57:20.424Z,0.40
2022-08-22T15:58:26.067Z,0.70
2022-08-22T15:59:53.757Z,0.40
2022-08-22T16:01:09.987Z,0.73
2022-08-22T16:02:27.033Z,0.40
2022-08-22T16:03:33.272Z,0.83
2022-08-22T16:05:01.014Z,0.40
2022-08-22T16:06:08.094Z,0.50
2022-08-22T16:07:23.365Z,0.20